Terminal Aerodrome Forecast
Issued by NWS

Current Version | Previous Version | Text Only | Print | Product List | Glossary On
Versions: 1 2 3 4 5 6 7 8 9 10 11 12 13 14 15 16
000
FTUS46 KOTX 302335
TAFPUW
TAF
KPUW 302335Z 3100/3124 10012KT P6SM BKN150 OVC250
     FM311800 11009KT P6SM BKN120 OVC150
     FM312200 23010KT P6SM -RA OVC080=

USA.gov is the U.S. government's official web portal to all federal, state and local government web resources and services.